Cincinnati, OH (45201)

10:33 AM EST on February 28, 2017 (GMT -0500)
Norwood | | Change Station

Elev 620 ft 39.15 °N, 84.45 °W | Updated 30 seconds ago

Rain
Rain
48.9 °F
Feels Like 49 °F
N
3.0
Wind Variable Wind from South

Today
High -- | Low -- °F
--% Chance of Precip.
Yesterday
High -- | Low -- °F
Precip. -- in
Pressure 30.08 in
Visibility 3.0 miles
Clouds Scattered Clouds 4700 ft
Mostly Cloudy 6000 ft
Overcast 7000 ft
Windchill 49 °F
Dew Point 48 °F
Humidity 98%
Rainfall 0.80 in
Snow Depth Not available.
7:11 AM 6:29 PM
Waxing Crescent, 5% visible
SPECI KLUK 281500Z 22007KT 3SM -RA BR SCT047 BKN060 OVC070 09/09 A3008 RMK AO2 LTG DSNT E AND SE P0002 T00940089
Pressure 30.08 in
Visibility 3.0 miles
Clouds Scattered Clouds 4700 ft
Mostly Cloudy 6000 ft
Overcast 7000 ft
Windchill 49 °F
Dew Point 48 °F
Humidity 98%
Rainfall 0.80 in
Snow Depth Not available.
7:11 AM 6:29 PM
Waxing Crescent, 5% visible
SPECI KLUK 281500Z 22007KT 3SM -RA BR SCT047 BKN060 OVC070 09/09 A3008 RMK AO2 LTG DSNT E AND SE P0002 T00940089

Get Your Daily Forecast Email!

Thanks for signing up!

Be on the lookout for a verification email in your inbox.

You'll start receiving the daily forecast at 8 AM.

×

10-Day Weather Forecast

Almanac

Astronomy

Feb. 28, 2017 Rise Set
Actual Time
Civil Twilight
Nautical Twilight
Astronomical Twilight
Moon
Length of Visible Light
Length of Day
Tomorrow will be .
, % of the Moon is Illuminated

Today's Extremes

State Highs State Lows

Community

WunderPhotos

Upload Photos

1,962,540 photos uploaded!

WunderBlog® & News

Nearby

Air Quality

  Air Quality AQ Index Pollutant
Not available.

Snow Depth

Station Depth Elevation

Earthquake Activity

City Distance Mag. Time & Date
Minimum magnitude displayed is 2.5.

Coastal Water Temperatures

Place Temperature

Stations

Nearby Weather Stations

Station Location Temp. Windchill Dew Point Humidity Wind Precip. Elev Updated Type
                   

Watches & Warnings

There are currently no watches in effect.